Dauntless Aviation
Airports North America United States Washington
71WA

I-90/BELLEVUE BUSI PK BOEING COMP SVCS HDQ HELIPORT

BELLEVUE, WA, USA

Airport Info
Suggest Updated Information for this Airport

Location

Latitude / Longitude: 47°35'4"N / 122°7'46"W
  47°35.0727'N / 122°7.7739'W
  47.5845 / -122.1296
Elevation: 300 ft. (estimated)
Variation: 20E (1990)
From city: 04 miles SE of BELLEVUE, WA

Operations

Facility use: Private
Sectional chart: SEATTLE
Control tower: no
Boundary ARTCC: SEATTLE
FSS: SEATTLE [1-800-WX-BRIEF]
Segmented circle: no

Communications

Nearby radio navigation aids

VOR radial/distance VOR name Freq Var
SEA 39oT/11.6 SEATTLE VORTAC 116.80 19E
PAE 163oT/21.0 PAINE VOR/DME 110.60 20E
TCM 28oT/29.8 MCCHORD VORTAC 109.60 22E
 
NDB name Hdg/Dist Freq Var ID
RENTON 33oT/6.4 353 20E RNT
DONDO 29oT/15.1 224 19E ODD
KITSAP 77oT/26.0 206 20E PWT
CARNEY 70oT/30.6 274 20E CAN
GRAYE 36oT/32.5 216 18E GR
LACOMAS 27oT/38.7 328 18E LAC

Services

Runway Information

Helipad H1

Dimensions: 75 x 75 ft.
Surface: ASPHALT OR BITUMINOUS CONCRETE,NO SPECIAL SURFACE TREATMENT
 

Additional Remarks

Instrument Procedures

No published instrument procedures available
Topographic chart at:
Satellite photo at:
Airport distance calculator
From:
Weather Reports

METAR

KRNT
6.2nm S
KRNT 020453Z 00000KT 10SM SCT041 M01/M04 A2993 RMK AO2 SLP141 T10111044
KBFI
7.9nm SW
KBFI 020453Z 11003KT 10SM BKN041 01/M05 A2993 RMK AO2 SLP135 T00061050
KSEA
11.1nm S
KSEA 020453Z 07005KT 10SM SCT037 M01/M06 A2991 RMK AO2 SLP139 T10111061
KPAE
20.9nm NW
KPAE 020453Z AUTO 00000KT 10SM BKN050 M01/M07 A2990 RMK AO2 SLP132 T10111072
KPWT
25.7nm SW
KPWT 020456Z AUTO 00000KT 10SM OVC035 M01/M02 A2991 RMK AO2 SLP138 T10111022 FZRANO
KTIW
26.5nm S
KTIW 020453Z AUTO 00000KT 10SM CLR 00/M04 A2992 RMK AO2 SLP135 T00001039

TAF

KBFI
7.9nm SW
KBFI 012320Z 0200/0224 04005KT P6SM FEW030 BKN070 FM020400 VRB03KT P6SM SCT050 BKN090 FM021000 12003KT P6SM BKN050 FM021600 15004KT P6SM BKN050
KSEA
11.1nm S
KSEA 020258Z 0203/0306 04008KT P6SM BKN050 FM020400 08005KT P6SM BKN050 FM021000 10003KT P6SM OVC050 FM021600 14006KT P6SM OVC050 FM022000 15006KT P6SM OVC060 FM030300 08007KT P6SM -RA OVC050
KPAE
20.9nm NW
KPAE 012320Z 0200/0224 36010KT P6SM SCT050 OVC070 FM020300 00000KT P6SM BKN050 FM021000 11005KT P6SM OVC050 FM021500 14006KT P6SM OVC050
KTCM
31.3nm S
TAF KTCM 020500Z 0205/0311 VRB06KT 4800 BR FEW050 SCT070 QNH2990INS BECMG 0209/0210 VRB06KT 3200 BR SCT010 QNH2998INS BECMG 0215/0216 14006KT 9999 NSW BKN015 OVC025 620159 QNH2993INS BECMG 0223/0224 12006KT 8000 -SHRA BKN010 OVC020 610159 QNH2991INS BECMG 0303/0304 20006KT 8000 -SHRASN BKN008 OVC015 610159 QNH2990INS BECMG 0306/0307 21006KT 9000 -SHRA BKN010 OVC025 610209 QNH2992INS TX04/0221Z TNM08/0213Z
KGRF
35.8nm S
TAF KGRF 012100Z 0121/0303 32005KT 9999 -SN BKN025 BKN040 BKN120 620255 QNH2970INS BECMG 0200/0201 03004KT 9999 NSW FEW030 FEW050 SCT120 QNH2979INS BECMG 0207/0208 11003KT 9999 FEW017 BKN025 BKN040 BKN060 620255 QNH2994INS TEMPO 0208/0213 6000 -FZDZ BR 660009 BECMG 0212/0213 12004KT 4800 -SN BR FEW015 BKN025 BKN050 BKN080 620255 QNH2998INS BECMG 0215/0216 13005KT 9999 NSW FEW011 BKN018 OVC030 620185 QNH2997INS BECMG 0220/0221 13010KT 9999 BKN030 BKN050 BKN080 620305 520003 QNH2992INS BECMG 0223/0224 13011G16KT 9999 FEW010 BKN017 OVC035 620175 530005 QNH2991INS TX01/0123Z TNM05/0208Z
Safelog

 

Dauntless Aviation

© 2007-2022 Dauntless Aviation, all rights reserved
Information provided via PilotNav comes from a variety of official and unofficial data sources. As errors are possible, do not use PilotNav for primary flight planning purposes. Verify any information that you receive via PilotNav with current and canonical charts and other official documents. The material in this database is subject to database copyrights held by Dauntless Aviation and may not be copied without the express permission of Dauntless Aviation - licenses for use of part of all of this data are available for purchase; enquire via the Dauntless Aviation helpdesk. A number of mechanisms and markers exist in the database to protect against and identify infringement / copyright. Automated queries against this website are strictly prohibited, and all activity is logged and analyzed.